Date,TemperatureHighF,TemperatureAvgF,TemperatureLowF,DewpointHighF,DewpointAvgF,DewpointLowF,HumidityHigh,HumidityAvg,HumidityLow,PressureMaxIn,PressureMinIn,WindSpeedMaxMPH,WindSpeedAvgMPH,GustSpeedMaxMPH,PrecipitationSumIn
2013-3-1,34,31,27,28,26,22,90,83,75,29.65,29.50,3,2,14,0.00
2013-3-2,32,28,24,25,22,20,85,78,72,29.65,29.60,5,2,16,0.00
2013-3-3,33,27,22,23,20,15,83,75,60,29.62,29.57,5,1,12,0.00
2013-3-4,38,28,16,27,20,15,95,74,49,29.65,29.52,2,1,8,0.00
2013-3-5,33,30,28,29,27,25,98,88,74,29.55,29.29,6,2,13,0.00
2013-3-6,38,32,27,32,29,26,97,89,72,29.77,29.41,12,2,13,0.21
2013-3-7,41,33,20,32,28,19,97,84,57,29.92,29.76,9,1,9,0.12
2013-3-8,45,28,12,31,22,10,98,80,49,30.00,29.87,5,0,6,0.00
2013-3-9,43,35,24,34,30,20,89,79,66,29.86,29.42,6,0,6,0.00
2013-3-10,57,47,38,49,42,34,97,82,67,29.42,29.17,14,1,14,0.36
2013-3-11,52,44,34,49,42,32,97,93,85,29.25,29.03,18,3,18,0.17
2013-3-12,38,33,30,32,29,25,95,84,64,29.46,29.25,19,6,19,0.00
2013-3-13,32,28,25,26,20,14,92,72,54,29.80,29.46,18,4,18,0.00
2013-3-14,42,33,26,30,23,15,91,67,49,29.81,29.61,11,2,11,0.00
2013-3-15,44,38,28,35,32,27,97,82,71,29.61,29.41,8,2,8,0.00
2013-3-16,43,43,43,35,35,35,73,73,73,29.42,29.42,2,2,0,0.00
2013-3-17,43,43,43,35,35,35,73,73,73,29.42,29.42,2,2,0,0.00
2013-3-18,43,43,43,35,35,35,73,73,73,29.42,29.42,2,2,0,0.00
2013-3-19,43,43,43,35,35,35,73,73,73,29.42,29.42,2,2,0,0.00
2013-3-20,44,42,28,36,34,28,97,76,71,29.47,29.41,4,2,8,0.00
2013-3-21,43,43,43,35,35,35,73,73,73,29.42,29.42,2,2,0,0.00
2013-3-22,36,28,18,22,19,16,92,70,45,29.58,29.52,5,1,12,0.00
2013-3-23,39,29,19,28,23,18,97,81,54,29.64,29.53,3,1,13,0.00
2013-3-24,38,32,24,28,26,22,92,78,62,29.54,29.13,8,3,17,0.00
2013-3-25,37,34,31,31,28,24,84,79,72,29.51,29.15,5,4,18,0.00
2013-3-26,38,35,31,33,31,30,96,87,78,29.72,29.51,4,2,14,0.05
2013-3-27,43,36,24,35,29,21,96,76,46,29.80,29.72,4,2,11,0.00
2013-3-28,48,34,22,32,24,19,96,71,36,29.83,29.78,4,1,10,0.00
2013-3-29,50,31,21,32,23,20,97,77,36,29.82,29.79,8,1,8,0.00